Flight Track Log - Related Links

Times and Time Zones

All times are in EDT time to prevent confusion due to time zone crossing. See the AWI3808 flight status page for this flight to view local times or setup timezone preferences in your user account.

Time Position Orientation Groundspeed Altitude Reporting Facility
EDT Latitude Longitude Course Direction KTS MPH feet Rate Location/Type
Mon 03:17:00 PM 36.1647 -79.7478 53° Northeast  Level FlightAware Approximate
Mon 03:17:38 PM 36.0358 -79.8661 44° Northeast 256 295 7,200  Level Washington Center
Mon 03:18:00 PM 36.2233 -79.6502 53° Northeast  Level FlightAware Approximate
Mon 03:18:38 PM 36.1125 -79.8242 24° Northeast 281 323 9,100  Level Washington Center
Mon 03:19:00 PM 36.2726 -79.5451 61° Northeast  Level FlightAware Approximate
Mon 03:19:38 PM 36.1692 -79.7550 45° Northeast 301 346 10,900  Level Washington Center
Mon 03:20:00 PM 36.3323 -79.4511 39° Northeast  Level FlightAware Approximate
Mon 03:20:38 PM 36.2269 -79.6525 55° Northeast 334 384 13,100  Level Washington Center
Mon 03:21:00 PM 36.3913 -79.3450 47° Northeast  Level FlightAware Approximate
Mon 03:21:38 PM 36.2778 -79.5650 54° Northeast 343 395 15,100  Level Washington Center
Mon 03:22:00 PM 36.4661 -79.2527 44° Northeast  Level FlightAware Approximate
Mon 03:22:38 PM 36.3422 -79.4497 55° Northeast 351 404 17,200  Level Washington Center
Mon 03:23:38 PM 36.3997 -79.3492 55° Northeast 357 411 18,700 1,500 Climbing Washington Center
Mon 03:24:38 PM 36.4736 -79.2547 46° Northeast 363 418 20,200 1,400 Climbing Washington Center
Mon 03:25:38 PM 36.5447 -79.1728 43° Northeast 374 430 21,500 1,350 Climbing Washington Center
Mon 03:26:38 PM 36.6225 -79.0831 43° Northeast 379 436 22,900 1,300 Climbing Washington Center
Mon 03:27:38 PM 36.6986 -78.9828 47° Northeast 385 443 24,100 1,050 Climbing Washington Center
Mon 03:28:38 PM 36.7811 -78.8672 48° Northeast 401 461 25,000 450 Climbing Washington Center
Mon 03:29:38 PM 36.8633 -78.7564 47° Northeast 416 479 25,000  Level Washington Center
Mon 03:30:38 PM 36.9433 -78.6481 47° Northeast 421 484 25,000 100 Level Washington Center
Mon 03:31:38 PM 37.0256 -78.5342 48° Northeast 427 491 25,200 450 Climbing Washington Center
Mon 03:32:38 PM 37.1008 -78.4303 48° Northeast 435 501 25,900 700 Climbing Washington Center
Mon 03:33:38 PM 37.1831 -78.3133 49° Northeast 440 506 26,600 550 Climbing Washington Center
Mon 03:34:38 PM 37.2647 -78.1989 48° Northeast 440 506 27,000 200 Climbing Washington Center
Mon 03:35:38 PM 37.3464 -78.0842 48° Northeast 440 506 27,000  Level Washington Center
Mon 03:36:38 PM 37.4303 -77.9667 48° Northeast 440 506 27,000  Level Washington Center
Mon 03:37:38 PM 37.5286 -77.8333 47° Northeast 457 526 27,000  Level Washington Center
Mon 03:38:38 PM 37.6158 -77.7494 37° Northeast 452 520 27,000  Level Washington Center
Mon 03:39:38 PM 37.7197 -77.6581 35° Northeast 452 520 27,000  Level Washington Center
Mon 03:40:38 PM 37.8233 -77.5633 36° Northeast 452 520 27,000  Level Washington Center
Mon 03:41:38 PM 37.9250 -77.4714 35° Northeast 452 520 27,000  Level Washington Center
Mon 03:42:38 PM 38.0203 -77.3814 37° Northeast 452 520 27,000 -50 Level Washington Center
Mon 03:43:38 PM 38.1236 -77.2864 36° Northeast 433 498 26,900 -50 Descending Washington Center
Mon 03:44:38 PM 38.2189 -77.1986 36° Northeast 426 490 26,900  Level Washington Center
Mon 03:45:38 PM 38.3158 -77.1081 36° Northeast 421 484 26,900  Level Washington Center
Mon 03:46:38 PM 38.4128 -77.0200 35° Northeast 421 484 26,900 -500 Level Washington Center
Mon 03:47:38 PM 38.5097 -76.9289 36° Northeast 421 484 25,900 -1,000 Descending Washington Center
Mon 03:48:38 PM 38.6108 -76.8378 35° Northeast 431 496 24,900 -950 Descending Washington Center
Mon 03:49:38 PM 38.7036 -76.7383 40° Northeast 436 502 24,000 -550 Descending Washington Center
Mon 03:50:38 PM 38.7383 -76.5978 72° East 422 486 23,800 -1,400 Descending Washington Center
Mon 03:51:38 PM 38.7686 -76.4517 75° East 415 478 21,200 -2,550 Descending Washington Center
Mon 03:52:38 PM 38.7967 -76.3108 76° East 415 478 18,700 -2,450 Descending Washington Center
Mon 03:53:38 PM 38.8244 -76.1778 75° East 394 453 16,300 -1,850 Descending Washington Center
Mon 03:54:38 PM 38.8478 -76.0475 77° East 381 438 15,000 -650 Descending Washington Center
Mon 03:55:38 PM 38.8733 -75.9328 74° East 354 407 15,000  Level Washington Center
Mon 03:56:38 PM 38.9111 -75.8158 67° East 342 394 15,000  Level Washington Center
Mon 03:57:38 PM 38.9903 -75.7411 36° Northeast 332 382 15,000 -759 Level Washington Center
Mon 03:59:16 PM 39.1414 -75.6678 21° North 337 388 13,000 -1,373 Descending FAA TRACON SMA TRACON (SMA)
Mon 03:59:36 PM 39.1717 -75.6664 North 337 388 12,300 -1,950 Descending FAA TRACON SMA TRACON (SMA)
Mon 03:59:56 PM 39.2008 -75.6633 North 334 384 11,700 -2,100 Descending FAA TRACON SMA TRACON (SMA)
Mon 04:00:16 PM 39.2347 -75.6597 North 320 368 10,900 -2,100 Descending FAA TRACON SMA TRACON (SMA)
Mon 04:00:36 PM 39.2608 -75.6567 North 312 359 10,300 -1,200 Descending FAA TRACON SMA TRACON (SMA)
Mon 04:00:56 PM 39.2861 -75.6481 15° North 304 350 10,100 -450 Descending FAA TRACON SMA TRACON (SMA)
Mon 04:01:16 PM 39.3122 -75.6275 31° Northeast 300 345 10,000 -1,350 Descending FAA TRACON SMA TRACON (SMA)
Mon 04:01:36 PM 39.3350 -75.6094 32° Northeast 298 343 9,200 -2,100 Descending FAA TRACON SMA TRACON (SMA)
Mon 04:01:56 PM 39.3558 -75.5911 34° Northeast 303 349 8,600 -2,049 Descending FAA TRACON SMA TRACON (SMA)
Mon 04:02:17 PM 39.3808 -75.5686 35° Northeast 303 349 7,800 -1,950 Descending FAA TRACON SMA TRACON (SMA)
Mon 04:02:36 PM 39.3989 -75.5406 50° Northeast 290 334 7,300 -1,231 Descending FAA TRACON SMA TRACON (SMA)
Mon 04:02:56 PM 39.4103 -75.5153 60° Northeast 296 341 7,000 -439 Descending FAA TRACON SMA TRACON (SMA)
Mon 04:03:17 PM 39.4261 -75.4828 58° Northeast 271 312 7,000  Level FAA TRACON SMA TRACON (SMA)
Mon 04:03:36 PM 39.4394 -75.4603 52° Northeast 256 295 7,000 -769 Level FAA TRACON SMA TRACON (SMA)
Mon 04:03:56 PM 39.4511 -75.4361 58° Northeast 247 284 6,500 -1,350 Descending FAA TRACON SMA TRACON (SMA)
Mon 04:04:16 PM 39.4625 -75.4128 58° Northeast 247 284 6,100 -732 Descending FAA TRACON SMA TRACON (SMA)
Mon 04:04:37 PM 39.4750 -75.3842 60° Northeast 245 282 6,000 -150 Descending FAA TRACON SMA TRACON (SMA)
Mon 04:04:56 PM 39.4869 -75.3614 56° Northeast 243 280 6,000  Level FAA TRACON SMA TRACON (SMA)
Mon 04:05:16 PM 39.5003 -75.3342 58° Northeast 244 281 6,000 -146 Level FAA TRACON SMA TRACON (SMA)
Mon 04:05:37 PM 39.5114 -75.3092 60° Northeast 245 282 5,900 -750 Descending FAA TRACON SMA TRACON (SMA)
Mon 04:05:56 PM 39.5217 -75.2858 60° Northeast 243 280 5,500 -1,385 Descending FAA TRACON SMA TRACON (SMA)
Mon 04:06:16 PM 39.5353 -75.2581 58° Northeast 241 277 5,000 -1,463 Descending FAA TRACON SMA TRACON (SMA)
Mon 04:06:37 PM 39.5486 -75.2386 48° Northeast 241 277 4,500 -1,350 Descending FAA TRACON SMA TRACON (SMA)
Mon 04:06:56 PM 39.5642 -75.2225 39° Northeast 232 267 4,100 -1,350 Descending FAA TRACON SMA TRACON (SMA)
Mon 04:07:17 PM 39.5842 -75.2014 39° Northeast 238 274 3,600 -1,500 Descending FAA TRACON SMA TRACON (SMA)
Mon 04:07:36 PM 39.5997 -75.1853 39° Northeast 235 270 3,100 -900 Descending FAA TRACON SMA TRACON (SMA)
Mon 04:07:57 PM 39.6142 -75.1708 38° Northeast 232 267 3,000 -150 Descending FAA TRACON SMA TRACON (SMA)
Mon 04:08:16 PM 39.6364 -75.1572 25° Northeast 237 273 3,000 -615 Level FAA TRACON SMA TRACON (SMA)
Mon 04:08:36 PM 39.6542 -75.1589 356° North 218 251 2,600 -1,317 Descending FAA TRACON SMA TRACON (SMA)
Mon 04:08:57 PM 39.6706 -75.1631 349° North 220 253 2,100 -1,317 Descending FAA TRACON SMA TRACON (SMA)
Mon 04:09:17 PM 39.6964 -75.1703 348° North 226 260 1,700 -769 Descending FAA TRACON SMA TRACON (SMA)
Mon 04:09:36 PM 39.7156 -75.1744 351° North 225 259 1,600 -150 Descending FAA TRACON SMA TRACON (SMA)
Mon 04:09:57 PM 39.7328 -75.1797 347° North 208 239 1,600  Level FAA TRACON SMA TRACON (SMA)
Mon 04:10:17 PM 39.7522 -75.1825 354° North 181 208 1,600  Level FAA TRACON SMA TRACON (SMA)

Login

Don't have an account? Register now (free) for customized features, flight alerts, and more!